EXS4NX EGNT-LBBG
Flight info
| Callsign | EXS4NX |
|---|---|
| Flight time | N/A |
| Altitude | 37000 |
| Route | GIRLI DCT GASKO DCT MAMUL L603 LAMSO DCT PETIK DCT SONEB DCT HMM DCT NOMKA DCT SUVUT L620 SULED DCT OMELO DCT GOLOP DCT KOZLI DCT BNO DCT ODNEM DCT BERVA DCT NIT DCT ERGOM DCT DODAR DCT TEGRI DCT DITAX DCT GIKUN DCT APROB DCT AMTOV N605 ALIVI L742 ESENA |
| Aircraft | B738/M-SDE2E3FGHIRWXY/LB1 |
Departure
| Time | 2026-05-07 15:10 |
|---|---|
| Airport | Newcastle International Airport (EGNT) |
Arrival
| Time | N/A |
|---|---|
| Airport | Burgas Airport (LBBG) |
| Time | Latitude | Longitude | Altitude | Speed | Heading |
|---|---|---|---|---|---|
| 2026-05-07 14:32 | 55.03666 | -1.70585 | 266 ft | 0 kts | 319° |
| 2026-05-07 14:34 | 55.03697 | -1.70562 | 266 ft | 0 kts | 264° |
| 2026-05-07 15:01 | 55.03698 | -1.70549 | 266 ft | 4 kts | 264° |
| 2026-05-07 15:01 | 55.03700 | -1.70509 | 266 ft | 2 kts | 263° |
| 2026-05-07 15:02 | 55.03702 | -1.70482 | 266 ft | 4 kts | 278° |
| 2026-05-07 15:02 | 55.03692 | -1.70443 | 266 ft | 4 kts | 333° |
| 2026-05-07 15:02 | 55.03668 | -1.70438 | 266 ft | 4 kts | 4° |
| 2026-05-07 15:02 | 55.03657 | -1.70440 | 266 ft | 0 kts | 4° |
| 2026-05-07 15:05 | 55.03659 | -1.70439 | 266 ft | 3 kts | 4° |
| 2026-05-07 15:05 | 55.03728 | -1.70430 | 266 ft | 12 kts | 4° |
| 2026-05-07 15:05 | 55.03781 | -1.70338 | 266 ft | 12 kts | 87° |
| 2026-05-07 15:06 | 55.03775 | -1.70176 | 262 ft | 14 kts | 94° |
| 2026-05-07 15:06 | 55.03774 | -1.69974 | 260 ft | 20 kts | 87° |
| 2026-05-07 15:06 | 55.03794 | -1.69721 | 257 ft | 22 kts | 78° |
| 2026-05-07 15:06 | 55.03842 | -1.69471 | 255 ft | 21 kts | 63° |
| 2026-05-07 15:07 | 55.03893 | -1.69283 | 253 ft | 14 kts | 66° |
| 2026-05-07 15:07 | 55.03935 | -1.69125 | 252 ft | 16 kts | 65° |
| 2026-05-07 15:07 | 55.03984 | -1.68942 | 250 ft | 16 kts | 65° |
| 2026-05-07 15:07 | 55.04031 | -1.68762 | 249 ft | 17 kts | 65° |
| 2026-05-07 15:08 | 55.04083 | -1.68568 | 248 ft | 17 kts | 64° |
| 2026-05-07 15:08 | 55.04133 | -1.68380 | 247 ft | 17 kts | 65° |
| 2026-05-07 15:08 | 55.04180 | -1.68202 | 247 ft | 16 kts | 65° |
| 2026-05-07 15:08 | 55.04231 | -1.68009 | 246 ft | 18 kts | 65° |
| 2026-05-07 15:09 | 55.04282 | -1.67816 | 245 ft | 17 kts | 65° |
| 2026-05-07 15:09 | 55.04331 | -1.67630 | 243 ft | 14 kts | 73° |
| 2026-05-07 15:09 | 55.04329 | -1.67467 | 241 ft | 13 kts | 94° |
| 2026-05-07 15:09 | 55.04271 | -1.67365 | 240 ft | 13 kts | 170° |
| 2026-05-07 15:10 | 55.04189 | -1.67482 | 242 ft | 26 kts | 245° |
| 2026-05-07 15:10 | 55.03985 | -1.68252 | 247 ft | 112 kts | 245° |
| 2026-05-07 15:10 | 55.03692 | -1.69350 | 269 ft | 163 kts | 245° |
| 2026-05-07 15:10 | 55.03199 | -1.71198 | 1034 ft | 176 kts | 242° |
| 2026-05-07 15:11 | 55.02674 | -1.73109 | 2218 ft | 180 kts | 243° |
| 2026-05-07 15:11 | 55.02109 | -1.75133 | 3077 ft | 189 kts | 237° |
| 2026-05-07 15:11 | 55.01017 | -1.76634 | 3375 ft | 216 kts | 200° |
| 2026-05-07 15:11 | 54.99532 | -1.77449 | 3916 ft | 232 kts | 199° |
| 2026-05-07 15:12 | 54.97893 | -1.78407 | 4525 ft | 249 kts | 200° |
| 2026-05-07 15:12 | 54.96224 | -1.79414 | 5592 ft | 249 kts | 200° |
| 2026-05-07 15:12 | 54.94572 | -1.80434 | 6541 ft | 253 kts | 201° |
| 2026-05-07 15:12 | 54.92905 | -1.81477 | 7440 ft | 257 kts | 201° |
| 2026-05-07 15:13 | 54.91198 | -1.82557 | 8314 ft | 261 kts | 201° |
| 2026-05-07 15:13 | 54.89483 | -1.83647 | 9315 ft | 263 kts | 201° |
| 2026-05-07 15:13 | 54.87744 | -1.84757 | 10188 ft | 268 kts | 202° |
| 2026-05-07 15:13 | 54.85983 | -1.85882 | 11028 ft | 271 kts | 202° |
| 2026-05-07 15:14 | 54.84204 | -1.87017 | 11893 ft | 274 kts | 202° |
| 2026-05-07 15:14 | 54.82391 | -1.88085 | 12738 ft | 278 kts | 193° |
| 2026-05-07 15:14 | 54.80437 | -1.87878 | 13536 ft | 290 kts | 164° |
| 2026-05-07 15:14 | 54.78574 | -1.86455 | 14353 ft | 294 kts | 158° |
| 2026-05-07 15:15 | 54.76694 | -1.84883 | 15097 ft | 298 kts | 158° |
| 2026-05-07 15:15 | 54.74808 | -1.83323 | 15851 ft | 302 kts | 158° |
| 2026-05-07 15:15 | 54.72899 | -1.81767 | 16605 ft | 305 kts | 157° |
| 2026-05-07 15:15 | 54.70880 | -1.80694 | 17327 ft | 306 kts | 176° |
| 2026-05-07 15:16 | 54.68763 | -1.80916 | 18120 ft | 307 kts | 189° |
| 2026-05-07 15:16 | 54.66638 | -1.81567 | 18790 ft | 311 kts | 191° |
| 2026-05-07 15:16 | 54.64506 | -1.82278 | 19451 ft | 314 kts | 191° |
| 2026-05-07 15:16 | 54.62343 | -1.83003 | 19984 ft | 322 kts | 191° |
| 2026-05-07 15:17 | 54.60060 | -1.83760 | 20114 ft | 343 kts | 191° |
| 2026-05-07 15:17 | 54.57653 | -1.84546 | 20242 ft | 362 kts | 191° |
| 2026-05-07 15:17 | 54.55122 | -1.85360 | 20394 ft | 378 kts | 191° |
| 2026-05-07 15:17 | 54.52493 | -1.86197 | 20771 ft | 387 kts | 191° |
| 2026-05-07 15:18 | 54.49834 | -1.87039 | 21351 ft | 390 kts | 191° |
| 2026-05-07 15:18 | 54.47159 | -1.87882 | 21959 ft | 392 kts | 191° |
| 2026-05-07 15:18 | 54.44464 | -1.88730 | 22512 ft | 395 kts | 190° |
| 2026-05-07 15:18 | 54.41743 | -1.89584 | 23066 ft | 399 kts | 190° |
| 2026-05-07 15:19 | 54.39004 | -1.90444 | 23611 ft | 402 kts | 190° |
| 2026-05-07 15:19 | 54.36249 | -1.91307 | 24055 ft | 404 kts | 190° |
| 2026-05-07 15:19 | 54.33473 | -1.92176 | 24489 ft | 407 kts | 190° |
| 2026-05-07 15:19 | 54.30669 | -1.93053 | 24923 ft | 410 kts | 190° |
| 2026-05-07 15:20 | 54.27855 | -1.93931 | 25379 ft | 413 kts | 190° |
| 2026-05-07 15:20 | 54.24999 | -1.94602 | 25759 ft | 416 kts | 182° |
| 2026-05-07 15:20 | 54.22110 | -1.94232 | 26167 ft | 419 kts | 170° |
| 2026-05-07 15:20 | 54.19284 | -1.92940 | 26569 ft | 422 kts | 159° |
| 2026-05-07 15:21 | 54.16650 | -1.90840 | 26978 ft | 425 kts | 154° |
| 2026-05-07 15:21 | 54.13973 | -1.88515 | 27397 ft | 427 kts | 153° |
| 2026-05-07 15:21 | 54.11325 | -1.86196 | 27778 ft | 429 kts | 153° |
| 2026-05-07 15:21 | 54.08650 | -1.83864 | 28159 ft | 431 kts | 153° |
| 2026-05-07 15:22 | 54.05968 | -1.81549 | 28537 ft | 434 kts | 154° |
| 2026-05-07 15:22 | 54.03264 | -1.79235 | 28921 ft | 435 kts | 154° |
| 2026-05-07 15:22 | 54.00541 | -1.76920 | 29292 ft | 437 kts | 154° |
| 2026-05-07 15:22 | 53.97818 | -1.74616 | 29720 ft | 437 kts | 154° |
| 2026-05-07 15:23 | 53.95107 | -1.72328 | 30337 ft | 432 kts | 153° |
| 2026-05-07 15:23 | 53.92425 | -1.70069 | 30893 ft | 428 kts | 153° |
| 2026-05-07 15:23 | 53.89799 | -1.67860 | 31318 ft | 427 kts | 153° |
| 2026-05-07 15:23 | 53.87138 | -1.65625 | 31663 ft | 427 kts | 153° |
| 2026-05-07 15:24 | 53.84476 | -1.63392 | 32036 ft | 427 kts | 153° |
| 2026-05-07 15:24 | 53.81815 | -1.61161 | 32470 ft | 425 kts | 153° |
| 2026-05-07 15:24 | 53.79172 | -1.58950 | 32914 ft | 422 kts | 153° |
| 2026-05-07 15:24 | 53.76541 | -1.56751 | 33317 ft | 421 kts | 153° |
| 2026-05-07 15:25 | 53.73908 | -1.54555 | 33602 ft | 423 kts | 153° |
| 2026-05-07 15:25 | 53.71262 | -1.52350 | 33894 ft | 424 kts | 153° |
| 2026-05-07 15:25 | 53.68625 | -1.50155 | 34288 ft | 421 kts | 153° |
| 2026-05-07 15:25 | 53.66000 | -1.47973 | 34549 ft | 422 kts | 153° |
| 2026-05-07 15:26 | 53.63349 | -1.45773 | 34725 ft | 425 kts | 153° |
| 2026-05-07 15:26 | 53.60694 | -1.43573 | 34928 ft | 426 kts | 153° |
| 2026-05-07 15:26 | 53.58030 | -1.41368 | 35195 ft | 426 kts | 153° |
| 2026-05-07 15:26 | 53.55367 | -1.39168 | 35439 ft | 427 kts | 154° |
| 2026-05-07 15:27 | 53.52694 | -1.36961 | 35654 ft | 429 kts | 154° |
| 2026-05-07 15:27 | 53.50047 | -1.34778 | 35869 ft | 429 kts | 154° |
| 2026-05-07 15:27 | 53.47357 | -1.32564 | 36105 ft | 430 kts | 154° |
| 2026-05-07 15:27 | 53.44704 | -1.30221 | 36291 ft | 432 kts | 146° |
| 2026-05-07 15:28 | 53.42477 | -1.26824 | 36463 ft | 435 kts | 129° |
| 2026-05-07 15:28 | 53.40839 | -1.22566 | 36691 ft | 437 kts | 116° |
| 2026-05-07 15:28 | 53.39789 | -1.17751 | 36808 ft | 442 kts | 109° |
| 2026-05-07 15:28 | 53.38914 | -1.12837 | 36881 ft | 446 kts | 108° |
| 2026-05-07 15:29 | 53.38052 | -1.07794 | 37013 ft | 448 kts | 108° |
| 2026-05-07 15:29 | 53.37183 | -1.02775 | 37042 ft | 452 kts | 108° |
| 2026-05-07 15:29 | 53.35360 | -0.92652 | 37040 ft | 452 kts | 108° |
| 2026-05-07 15:30 | 53.33500 | -0.82633 | 37047 ft | 450 kts | 109° |
| 2026-05-07 15:30 | 53.31635 | -0.72658 | 37046 ft | 448 kts | 109° |
| 2026-05-07 15:31 | 53.29772 | -0.62739 | 37050 ft | 446 kts | 109° |
| 2026-05-07 15:31 | 53.27902 | -0.52845 | 37050 ft | 446 kts | 109° |
| 2026-05-07 15:32 | 53.26025 | -0.42952 | 37050 ft | 445 kts | 109° |
| 2026-05-07 15:32 | 53.24163 | -0.33102 | 37048 ft | 446 kts | 109° |
| 2026-05-07 15:33 | 53.22276 | -0.23216 | 37051 ft | 447 kts | 109° |
| 2026-05-07 15:33 | 53.20364 | -0.13331 | 37052 ft | 449 kts | 109° |
| 2026-05-07 15:34 | 53.18750 | -0.05006 | 37058 ft | 450 kts | 109° |
| 2026-05-07 15:34 | 53.16828 | 0.04886 | 37056 ft | 452 kts | 110° |
| 2026-05-07 15:35 | 53.14888 | 0.14859 | 37066 ft | 453 kts | 110° |
| 2026-05-07 15:35 | 53.12938 | 0.24833 | 37072 ft | 453 kts | 109° |
| 2026-05-07 15:36 | 53.10976 | 0.34819 | 37075 ft | 453 kts | 110° |
| 2026-05-07 15:36 | 53.09008 | 0.44781 | 37074 ft | 453 kts | 109° |
| 2026-05-07 15:37 | 53.07033 | 0.54726 | 37074 ft | 452 kts | 110° |
| 2026-05-07 15:37 | 53.05056 | 0.64645 | 37075 ft | 451 kts | 110° |
| 2026-05-07 15:38 | 53.03071 | 0.74533 | 37078 ft | 450 kts | 110° |
| 2026-05-07 15:38 | 53.01081 | 0.84402 | 37080 ft | 450 kts | 110° |
| 2026-05-07 15:39 | 52.99089 | 0.94249 | 37073 ft | 450 kts | 110° |
| 2026-05-07 15:39 | 52.97294 | 1.04184 | 37080 ft | 450 kts | 104° |
| 2026-05-07 15:40 | 52.96128 | 1.14401 | 37082 ft | 451 kts | 102° |
| 2026-05-07 15:40 | 52.95025 | 1.24593 | 37091 ft | 452 kts | 102° |
| 2026-05-07 15:41 | 52.93858 | 1.34835 | 37092 ft | 452 kts | 103° |
| 2026-05-07 15:41 | 52.92655 | 1.45065 | 37097 ft | 453 kts | 102° |
| 2026-05-07 15:42 | 52.91431 | 1.55321 | 37088 ft | 453 kts | 102° |
| 2026-05-07 15:42 | 52.90198 | 1.65565 | 37106 ft | 454 kts | 103° |
| 2026-05-07 15:43 | 52.88957 | 1.75818 | 37101 ft | 454 kts | 102° |
| 2026-05-07 15:43 | 52.87708 | 1.86065 | 37101 ft | 455 kts | 102° |
| 2026-05-07 15:44 | 52.86445 | 1.96346 | 37104 ft | 455 kts | 103° |
| 2026-05-07 15:44 | 52.85182 | 2.06550 | 37099 ft | 455 kts | 103° |
| 2026-05-07 15:45 | 52.83904 | 2.16795 | 37099 ft | 455 kts | 103° |
| 2026-05-07 15:45 | 52.82617 | 2.27044 | 37100 ft | 455 kts | 103° |
| 2026-05-07 15:46 | 52.80671 | 2.42401 | 37103 ft | 455 kts | 103° |
| 2026-05-07 15:47 | 52.79363 | 2.52620 | 37095 ft | 454 kts | 103° |
| 2026-05-07 15:47 | 52.78040 | 2.62838 | 37103 ft | 454 kts | 103° |
| 2026-05-07 15:48 | 52.76713 | 2.73028 | 37104 ft | 454 kts | 103° |
| 2026-05-07 15:48 | 52.75385 | 2.83188 | 37109 ft | 454 kts | 103° |
| 2026-05-07 15:49 | 52.74077 | 2.93381 | 37103 ft | 454 kts | 103° |
| 2026-05-07 15:49 | 52.72836 | 3.03611 | 37095 ft | 454 kts | 100° |
| 2026-05-07 15:50 | 52.71888 | 3.13920 | 37104 ft | 455 kts | 99° |
| 2026-05-07 15:50 | 52.70980 | 3.24255 | 37107 ft | 455 kts | 99° |
| 2026-05-07 15:51 | 52.70034 | 3.34587 | 37105 ft | 456 kts | 99° |
| 2026-05-07 15:51 | 52.69063 | 3.44869 | 37109 ft | 457 kts | 100° |
| 2026-05-07 15:52 | 52.68069 | 3.55236 | 37099 ft | 458 kts | 100° |
| 2026-05-07 15:52 | 52.67066 | 3.65615 | 37100 ft | 458 kts | 100° |
| 2026-05-07 15:53 | 52.66054 | 3.76007 | 37094 ft | 459 kts | 100° |
| 2026-05-07 15:53 | 52.65031 | 3.86402 | 37100 ft | 459 kts | 100° |
| 2026-05-07 15:54 | 52.63998 | 3.96813 | 37108 ft | 460 kts | 100° |
| 2026-05-07 15:54 | 52.62958 | 4.07201 | 37081 ft | 460 kts | 100° |
| 2026-05-07 15:55 | 52.61902 | 4.17656 | 37092 ft | 460 kts | 101° |
| 2026-05-07 15:55 | 52.60306 | 4.27823 | 37100 ft | 458 kts | 111° |
| 2026-05-07 15:56 | 52.58084 | 4.37644 | 37087 ft | 458 kts | 112° |
| 2026-05-07 15:56 | 52.55845 | 4.47442 | 37081 ft | 458 kts | 112° |
| 2026-05-07 15:57 | 52.53639 | 4.57273 | 37077 ft | 458 kts | 111° |
| 2026-05-07 15:57 | 52.51433 | 4.67172 | 37076 ft | 458 kts | 111° |
| 2026-05-07 15:58 | 52.49234 | 4.77017 | 37076 ft | 458 kts | 111° |
| 2026-05-07 15:58 | 52.47046 | 4.86767 | 37071 ft | 458 kts | 111° |
| 2026-05-07 15:59 | 52.44802 | 4.96710 | 37077 ft | 457 kts | 111° |
| 2026-05-07 15:59 | 52.42606 | 5.06400 | 37064 ft | 457 kts | 112° |
| 2026-05-07 16:00 | 52.40382 | 5.16159 | 37063 ft | 457 kts | 112° |
| 2026-05-07 16:00 | 52.38149 | 5.25918 | 37075 ft | 457 kts | 112° |
| 2026-05-07 16:01 | 52.35920 | 5.35611 | 37079 ft | 458 kts | 112° |
| 2026-05-07 16:01 | 52.33666 | 5.45371 | 37069 ft | 459 kts | 112° |
| 2026-05-07 16:02 | 52.31385 | 5.55203 | 37074 ft | 459 kts | 112° |
| 2026-05-07 16:02 | 52.29111 | 5.64957 | 37056 ft | 460 kts | 112° |
| 2026-05-07 16:03 | 52.26842 | 5.74651 | 37051 ft | 460 kts | 112° |
| 2026-05-07 16:03 | 52.24531 | 5.84477 | 37051 ft | 460 kts | 112° |
| 2026-05-07 16:04 | 52.22239 | 5.94177 | 37043 ft | 460 kts | 112° |
| 2026-05-07 16:04 | 52.19922 | 6.03939 | 37049 ft | 460 kts | 112° |
| 2026-05-07 16:05 | 52.17610 | 6.13639 | 37047 ft | 460 kts | 112° |
| 2026-05-07 16:05 | 52.15286 | 6.23340 | 37050 ft | 460 kts | 112° |
| 2026-05-07 16:06 | 52.13346 | 6.31410 | 37047 ft | 460 kts | 112° |
| 2026-05-07 16:06 | 52.10990 | 6.41169 | 37041 ft | 459 kts | 112° |
| 2026-05-07 16:07 | 52.08639 | 6.50865 | 37043 ft | 459 kts | 112° |
| 2026-05-07 16:07 | 52.06283 | 6.60539 | 37047 ft | 459 kts | 113° |
| 2026-05-07 16:08 | 52.03939 | 6.70129 | 37047 ft | 459 kts | 113° |
| 2026-05-07 16:08 | 52.01685 | 6.79849 | 37047 ft | 460 kts | 108° |
| 2026-05-07 16:09 | 51.99953 | 6.89851 | 37049 ft | 460 kts | 106° |
| 2026-05-07 16:09 | 51.98289 | 6.99892 | 37068 ft | 460 kts | 106° |
| 2026-05-07 16:10 | 51.96564 | 7.09942 | 37057 ft | 460 kts | 107° |
| 2026-05-07 16:10 | 51.94815 | 7.19890 | 37053 ft | 461 kts | 107° |
| 2026-05-07 16:11 | 51.93044 | 7.29876 | 37061 ft | 461 kts | 107° |
| 2026-05-07 16:11 | 51.91265 | 7.39869 | 37059 ft | 461 kts | 107° |
| 2026-05-07 16:12 | 51.89477 | 7.49858 | 37079 ft | 461 kts | 107° |
| 2026-05-07 16:12 | 51.87685 | 7.59828 | 37079 ft | 461 kts | 107° |
| 2026-05-07 16:13 | 51.85884 | 7.69789 | 37065 ft | 461 kts | 107° |
| 2026-05-07 16:13 | 51.84368 | 7.79829 | 37082 ft | 461 kts | 103° |
| 2026-05-07 16:14 | 51.83051 | 7.90006 | 37066 ft | 461 kts | 102° |
| 2026-05-07 16:14 | 51.81723 | 8.00180 | 37065 ft | 461 kts | 103° |
| 2026-05-07 16:15 | 51.80361 | 8.10287 | 37076 ft | 462 kts | 103° |
| 2026-05-07 16:15 | 51.78969 | 8.20429 | 37070 ft | 462 kts | 103° |
| 2026-05-07 16:16 | 51.77561 | 8.30590 | 37070 ft | 462 kts | 103° |
| 2026-05-07 16:16 | 51.76149 | 8.40717 | 37067 ft | 462 kts | 103° |
| 2026-05-07 16:17 | 51.74731 | 8.50826 | 37077 ft | 461 kts | 103° |
| 2026-05-07 16:17 | 51.73302 | 8.60946 | 37070 ft | 461 kts | 103° |
| 2026-05-07 16:18 | 51.71874 | 8.70993 | 37064 ft | 461 kts | 104° |
| 2026-05-07 16:18 | 51.70431 | 8.81078 | 37071 ft | 460 kts | 104° |
| 2026-05-07 16:19 | 51.68983 | 8.91131 | 37075 ft | 461 kts | 104° |
| 2026-05-07 16:19 | 51.67512 | 9.01272 | 37068 ft | 461 kts | 104° |
| 2026-05-07 16:20 | 51.66044 | 9.11334 | 37068 ft | 461 kts | 104° |
| 2026-05-07 16:20 | 51.64561 | 9.21427 | 37060 ft | 461 kts | 104° |
| 2026-05-07 16:21 | 51.63085 | 9.31414 | 37073 ft | 461 kts | 104° |
| 2026-05-07 16:21 | 51.61587 | 9.41477 | 37067 ft | 461 kts | 104° |
| 2026-05-07 16:22 | 51.60081 | 9.51534 | 37076 ft | 461 kts | 104° |
| 2026-05-07 16:22 | 51.58576 | 9.61521 | 37075 ft | 461 kts | 104° |
| 2026-05-07 16:23 | 51.57054 | 9.71557 | 37076 ft | 461 kts | 104° |
| 2026-05-07 16:23 | 51.55527 | 9.81570 | 37075 ft | 461 kts | 104° |
| 2026-05-07 16:24 | 51.53989 | 9.91585 | 37064 ft | 460 kts | 104° |
| 2026-05-07 16:24 | 51.52448 | 10.01561 | 37073 ft | 460 kts | 105° |
| 2026-05-07 16:25 | 51.50897 | 10.11539 | 37060 ft | 460 kts | 105° |
| 2026-05-07 16:25 | 51.49336 | 10.21518 | 37069 ft | 460 kts | 105° |
| 2026-05-07 16:26 | 51.47771 | 10.31469 | 37069 ft | 460 kts | 105° |
| 2026-05-07 16:26 | 51.46194 | 10.41439 | 37065 ft | 460 kts | 105° |
| 2026-05-07 16:27 | 51.44623 | 10.51311 | 37070 ft | 459 kts | 105° |
| 2026-05-07 16:27 | 51.43048 | 10.61259 | 37061 ft | 460 kts | 105° |
| 2026-05-07 16:28 | 51.41466 | 10.71257 | 37070 ft | 460 kts | 105° |
| 2026-05-07 16:28 | 51.39893 | 10.81129 | 37055 ft | 460 kts | 105° |
| 2026-05-07 16:29 | 51.38297 | 10.91081 | 37060 ft | 460 kts | 105° |
| 2026-05-07 16:29 | 51.36694 | 11.01010 | 37064 ft | 460 kts | 105° |
| 2026-05-07 16:30 | 51.35082 | 11.10938 | 37051 ft | 460 kts | 105° |
| 2026-05-07 16:30 | 51.33461 | 11.20865 | 37060 ft | 460 kts | 105° |
| 2026-05-07 16:31 | 51.31836 | 11.30764 | 37066 ft | 460 kts | 106° |
| 2026-05-07 16:31 | 51.30480 | 11.38986 | 37060 ft | 460 kts | 106° |
| 2026-05-07 16:32 | 51.28826 | 11.48901 | 37054 ft | 461 kts | 106° |
| 2026-05-07 16:32 | 51.27108 | 11.58779 | 37055 ft | 460 kts | 106° |
| 2026-05-07 16:33 | 51.25458 | 11.68673 | 37061 ft | 460 kts | 106° |
| 2026-05-07 16:33 | 51.23818 | 11.78553 | 37057 ft | 461 kts | 106° |
| 2026-05-07 16:34 | 51.22154 | 11.88471 | 37059 ft | 462 kts | 106° |
| 2026-05-07 16:34 | 51.20474 | 11.98366 | 37035 ft | 462 kts | 107° |
| 2026-05-07 16:35 | 51.18750 | 12.08329 | 37052 ft | 461 kts | 107° |
| 2026-05-07 16:35 | 51.17042 | 12.18166 | 37044 ft | 461 kts | 107° |
| 2026-05-07 16:36 | 51.15327 | 12.27991 | 37047 ft | 460 kts | 107° |
| 2026-05-07 16:36 | 51.13601 | 12.37832 | 37059 ft | 461 kts | 107° |
| 2026-05-07 16:37 | 51.11869 | 12.47662 | 37040 ft | 461 kts | 107° |
| 2026-05-07 16:37 | 51.10129 | 12.57490 | 37045 ft | 460 kts | 108° |
| 2026-05-07 16:38 | 51.08384 | 12.67293 | 37049 ft | 460 kts | 108° |
| 2026-05-07 16:38 | 51.06629 | 12.77098 | 37047 ft | 459 kts | 108° |
| 2026-05-07 16:39 | 51.04883 | 12.86798 | 37039 ft | 459 kts | 108° |
| 2026-05-07 16:39 | 51.03117 | 12.96556 | 37042 ft | 459 kts | 108° |
| 2026-05-07 16:40 | 51.01352 | 13.06259 | 37048 ft | 459 kts | 108° |
| 2026-05-07 16:40 | 50.99550 | 13.16117 | 37035 ft | 460 kts | 108° |
| 2026-05-07 16:41 | 50.97744 | 13.25938 | 37039 ft | 460 kts | 108° |
| 2026-05-07 16:41 | 50.95938 | 13.35709 | 37035 ft | 460 kts | 109° |
| 2026-05-07 16:42 | 50.94139 | 13.45393 | 37041 ft | 461 kts | 109° |
| 2026-05-07 16:42 | 50.92321 | 13.55126 | 37034 ft | 460 kts | 109° |
| 2026-05-07 16:43 | 50.90493 | 13.64862 | 37032 ft | 461 kts | 109° |
| 2026-05-07 16:43 | 50.88659 | 13.74579 | 37032 ft | 460 kts | 109° |
| 2026-05-07 16:44 | 50.86815 | 13.84308 | 37035 ft | 460 kts | 109° |
| 2026-05-07 16:44 | 50.84966 | 13.94011 | 37015 ft | 460 kts | 109° |
| 2026-05-07 16:45 | 50.82335 | 14.03130 | 37008 ft | 453 kts | 127° |
| 2026-05-07 16:45 | 50.78434 | 14.10920 | 37020 ft | 451 kts | 132° |
| 2026-05-07 16:46 | 50.74450 | 14.18598 | 36987 ft | 452 kts | 132° |
| 2026-05-07 16:46 | 50.70518 | 14.26277 | 36998 ft | 452 kts | 131° |
| 2026-05-07 16:47 | 50.66571 | 14.34023 | 36999 ft | 453 kts | 131° |
| 2026-05-07 16:47 | 50.62612 | 14.41775 | 36980 ft | 454 kts | 131° |
| 2026-05-07 16:48 | 50.58636 | 14.49517 | 36992 ft | 455 kts | 133° |
| 2026-05-07 16:48 | 50.54364 | 14.56837 | 36984 ft | 454 kts | 137° |
| 2026-05-07 16:49 | 50.49958 | 14.63963 | 36968 ft | 454 kts | 137° |
| 2026-05-07 16:49 | 50.45555 | 14.71111 | 36967 ft | 454 kts | 137° |
| 2026-05-07 16:50 | 50.41186 | 14.78254 | 36962 ft | 454 kts | 137° |
| 2026-05-07 16:50 | 50.36815 | 14.85406 | 36957 ft | 453 kts | 137° |
| 2026-05-07 16:51 | 50.32476 | 14.92483 | 36952 ft | 452 kts | 137° |
| 2026-05-07 16:51 | 50.28111 | 14.99582 | 36961 ft | 452 kts | 137° |
| 2026-05-07 16:52 | 50.23753 | 15.06649 | 36955 ft | 451 kts | 137° |
| 2026-05-07 16:52 | 50.19393 | 15.13698 | 36954 ft | 451 kts | 137° |
| 2026-05-07 16:53 | 50.15034 | 15.20727 | 36954 ft | 450 kts | 137° |
| 2026-05-07 16:53 | 50.10671 | 15.27746 | 36939 ft | 450 kts | 138° |
| 2026-05-07 16:54 | 50.06314 | 15.34734 | 36944 ft | 449 kts | 138° |
| 2026-05-07 16:54 | 50.01896 | 15.41565 | 36952 ft | 447 kts | 140° |
| 2026-05-07 16:55 | 49.97424 | 15.48246 | 36954 ft | 446 kts | 140° |
| 2026-05-07 16:55 | 49.92944 | 15.54933 | 36953 ft | 446 kts | 140° |
| 2026-05-07 16:56 | 49.88476 | 15.61619 | 36926 ft | 446 kts | 140° |
| 2026-05-07 16:56 | 49.81780 | 15.71627 | 36938 ft | 445 kts | 140° |
| 2026-05-07 16:57 | 49.77323 | 15.78269 | 36940 ft | 444 kts | 140° |
| 2026-05-07 16:57 | 49.72902 | 15.84838 | 36946 ft | 444 kts | 140° |
| 2026-05-07 16:58 | 49.68445 | 15.91441 | 36948 ft | 443 kts | 140° |
| 2026-05-07 16:58 | 49.63988 | 15.98029 | 36938 ft | 443 kts | 141° |
| 2026-05-07 16:59 | 49.59531 | 16.04598 | 36950 ft | 443 kts | 141° |
| 2026-05-07 16:59 | 49.55060 | 16.11169 | 36950 ft | 443 kts | 141° |
| 2026-05-07 17:00 | 49.50587 | 16.17729 | 36949 ft | 443 kts | 141° |
| 2026-05-07 17:00 | 49.46144 | 16.24224 | 36951 ft | 443 kts | 141° |
| 2026-05-07 17:01 | 49.42379 | 16.29716 | 36928 ft | 443 kts | 141° |
| 2026-05-07 17:01 | 49.37932 | 16.36188 | 36941 ft | 443 kts | 141° |
| 2026-05-07 17:02 | 49.33450 | 16.42692 | 36940 ft | 443 kts | 141° |
| 2026-05-07 17:02 | 49.28960 | 16.49192 | 36941 ft | 444 kts | 141° |
| 2026-05-07 17:03 | 49.24470 | 16.55675 | 36943 ft | 444 kts | 141° |
| 2026-05-07 17:03 | 49.19962 | 16.62171 | 36898 ft | 444 kts | 142° |
| 2026-05-07 17:04 | 49.15464 | 16.68632 | 36931 ft | 443 kts | 142° |
| 2026-05-07 17:04 | 49.11119 | 16.75358 | 36944 ft | 446 kts | 138° |
| 2026-05-07 17:05 | 49.06897 | 16.82256 | 36934 ft | 446 kts | 138° |
| 2026-05-07 17:05 | 49.02635 | 16.89164 | 36941 ft | 446 kts | 138° |
| 2026-05-07 17:06 | 48.98350 | 16.96032 | 36924 ft | 446 kts | 139° |
| 2026-05-07 17:06 | 48.94066 | 17.02864 | 36937 ft | 445 kts | 139° |
| 2026-05-07 17:07 | 48.89813 | 17.09634 | 36935 ft | 445 kts | 139° |
| 2026-05-07 17:07 | 48.85534 | 17.16427 | 36944 ft | 444 kts | 139° |
| 2026-05-07 17:08 | 48.81264 | 17.23222 | 36946 ft | 444 kts | 139° |
| 2026-05-07 17:08 | 48.77005 | 17.30013 | 36947 ft | 444 kts | 139° |
| 2026-05-07 17:09 | 48.73727 | 17.35226 | 36954 ft | 444 kts | 139° |
| 2026-05-07 17:09 | 48.69452 | 17.42006 | 36948 ft | 444 kts | 139° |
| 2026-05-07 17:10 | 48.65174 | 17.48773 | 36950 ft | 444 kts | 139° |
| 2026-05-07 17:10 | 48.60899 | 17.55515 | 36955 ft | 444 kts | 139° |
| 2026-05-07 17:11 | 48.56618 | 17.62241 | 36948 ft | 444 kts | 139° |
| 2026-05-07 17:11 | 48.52333 | 17.68957 | 36950 ft | 444 kts | 139° |
| 2026-05-07 17:12 | 48.48035 | 17.75680 | 36959 ft | 444 kts | 139° |
| 2026-05-07 17:12 | 48.43725 | 17.82403 | 36959 ft | 445 kts | 139° |
| 2026-05-07 17:13 | 48.39409 | 17.89121 | 36959 ft | 446 kts | 139° |
| 2026-05-07 17:13 | 48.35077 | 17.95846 | 36954 ft | 446 kts | 140° |
| 2026-05-07 17:14 | 48.30755 | 18.02539 | 36942 ft | 447 kts | 139° |
| 2026-05-07 17:14 | 48.26388 | 18.09132 | 36962 ft | 446 kts | 141° |
| 2026-05-07 17:15 | 48.21863 | 18.15531 | 36968 ft | 446 kts | 142° |
| 2026-05-07 17:15 | 48.17314 | 18.21924 | 36966 ft | 448 kts | 142° |
| 2026-05-07 17:16 | 48.12777 | 18.28339 | 36965 ft | 449 kts | 142° |
| 2026-05-07 17:16 | 48.08232 | 18.34776 | 36968 ft | 449 kts | 142° |
| 2026-05-07 17:17 | 48.03674 | 18.41220 | 36978 ft | 450 kts | 142° |
| 2026-05-07 17:17 | 47.99121 | 18.47638 | 36967 ft | 450 kts | 142° |
| 2026-05-07 17:18 | 47.94556 | 18.54055 | 36957 ft | 449 kts | 142° |
| 2026-05-07 17:18 | 47.90007 | 18.60435 | 36981 ft | 448 kts | 142° |
| 2026-05-07 17:19 | 47.85494 | 18.66748 | 36985 ft | 448 kts | 142° |
| 2026-05-07 17:19 | 47.80917 | 18.73134 | 36982 ft | 448 kts | 143° |
| 2026-05-07 17:20 | 47.76325 | 18.79418 | 36986 ft | 447 kts | 143° |
| 2026-05-07 17:20 | 47.71729 | 18.85616 | 36969 ft | 447 kts | 143° |
| 2026-05-07 17:21 | 47.67121 | 18.91826 | 36993 ft | 446 kts | 143° |
| 2026-05-07 17:21 | 47.62560 | 18.97972 | 36988 ft | 445 kts | 143° |
| 2026-05-07 17:22 | 47.57954 | 19.04165 | 36987 ft | 447 kts | 143° |
| 2026-05-07 17:22 | 47.53334 | 19.10363 | 36999 ft | 448 kts | 143° |
| 2026-05-07 17:23 | 47.48704 | 19.16560 | 36989 ft | 448 kts | 143° |
| 2026-05-07 17:23 | 47.44103 | 19.22702 | 36988 ft | 448 kts | 143° |
| 2026-05-07 17:24 | 47.39460 | 19.28886 | 36995 ft | 449 kts | 143° |
| 2026-05-07 17:24 | 47.34808 | 19.35066 | 36991 ft | 450 kts | 143° |
| 2026-05-07 17:25 | 47.30146 | 19.41245 | 36963 ft | 450 kts | 143° |
| 2026-05-07 17:25 | 47.25482 | 19.47414 | 36988 ft | 450 kts | 143° |
| 2026-05-07 17:26 | 47.20841 | 19.53619 | 36998 ft | 453 kts | 140° |
| 2026-05-07 17:26 | 47.16653 | 19.60546 | 37000 ft | 456 kts | 135° |
| 2026-05-07 17:27 | 47.12553 | 19.67706 | 36999 ft | 456 kts | 135° |
| 2026-05-07 17:27 | 47.08431 | 19.74815 | 36990 ft | 455 kts | 136° |
| 2026-05-07 17:28 | 47.04317 | 19.81805 | 36988 ft | 455 kts | 136° |
| 2026-05-07 17:28 | 47.00161 | 19.88814 | 36996 ft | 454 kts | 136° |
| 2026-05-07 17:29 | 46.96011 | 19.95793 | 36996 ft | 454 kts | 136° |
| 2026-05-07 17:29 | 46.91845 | 20.02781 | 36975 ft | 454 kts | 136° |
| 2026-05-07 17:30 | 46.88391 | 20.08566 | 36997 ft | 453 kts | 136° |
| 2026-05-07 17:30 | 46.84241 | 20.15499 | 36993 ft | 453 kts | 136° |
| 2026-05-07 17:31 | 46.80073 | 20.22443 | 37004 ft | 453 kts | 136° |
| 2026-05-07 17:31 | 46.75938 | 20.29316 | 37003 ft | 453 kts | 136° |
| 2026-05-07 17:32 | 46.71772 | 20.36222 | 37003 ft | 453 kts | 136° |
| 2026-05-07 17:32 | 46.67600 | 20.43121 | 37002 ft | 453 kts | 136° |
| 2026-05-07 17:33 | 46.63428 | 20.50003 | 37002 ft | 453 kts | 136° |
| 2026-05-07 17:33 | 46.59269 | 20.56845 | 37003 ft | 453 kts | 136° |
| 2026-05-07 17:34 | 46.55078 | 20.63724 | 36992 ft | 453 kts | 136° |
| 2026-05-07 17:34 | 46.50895 | 20.70571 | 37000 ft | 453 kts | 136° |
| 2026-05-07 17:35 | 46.46694 | 20.77432 | 37002 ft | 453 kts | 136° |
| 2026-05-07 17:35 | 46.42521 | 20.84228 | 37013 ft | 453 kts | 136° |
| 2026-05-07 17:36 | 46.38312 | 20.91068 | 36985 ft | 454 kts | 136° |
| 2026-05-07 17:36 | 46.34096 | 20.97902 | 37021 ft | 454 kts | 136° |
| 2026-05-07 17:37 | 46.29881 | 21.04720 | 37012 ft | 454 kts | 136° |
| 2026-05-07 17:37 | 46.25677 | 21.11499 | 37025 ft | 454 kts | 136° |
| 2026-05-07 17:38 | 46.21419 | 21.18258 | 37012 ft | 454 kts | 137° |
| 2026-05-07 17:38 | 46.17134 | 21.25008 | 37013 ft | 454 kts | 137° |
| 2026-05-07 17:39 | 46.12873 | 21.31716 | 37023 ft | 454 kts | 137° |
| 2026-05-07 17:39 | 46.08588 | 21.38454 | 37020 ft | 455 kts | 137° |
| 2026-05-07 17:40 | 46.04311 | 21.45165 | 37016 ft | 455 kts | 137° |
| 2026-05-07 17:40 | 46.00018 | 21.51886 | 37007 ft | 455 kts | 137° |
| 2026-05-07 17:41 | 45.95725 | 21.58588 | 37007 ft | 455 kts | 137° |
| 2026-05-07 17:41 | 45.91484 | 21.65196 | 37001 ft | 456 kts | 137° |
| 2026-05-07 17:42 | 45.87166 | 21.71903 | 37010 ft | 456 kts | 137° |
| 2026-05-07 17:42 | 45.82851 | 21.78592 | 37002 ft | 456 kts | 137° |
| 2026-05-07 17:43 | 45.78529 | 21.85276 | 37012 ft | 456 kts | 137° |
| 2026-05-07 17:43 | 45.74209 | 21.91939 | 37017 ft | 456 kts | 137° |
| 2026-05-07 17:44 | 45.69883 | 21.98597 | 37018 ft | 457 kts | 137° |
| 2026-05-07 17:44 | 45.65545 | 22.05255 | 37009 ft | 456 kts | 137° |
| 2026-05-07 17:45 | 45.61204 | 22.11903 | 37013 ft | 456 kts | 137° |
| 2026-05-07 17:45 | 45.56887 | 22.18498 | 37031 ft | 456 kts | 137° |
| 2026-05-07 17:46 | 45.52568 | 22.25081 | 37035 ft | 456 kts | 137° |
| 2026-05-07 17:46 | 45.48225 | 22.31687 | 37028 ft | 456 kts | 137° |
| 2026-05-07 17:47 | 45.43939 | 22.38401 | 37043 ft | 457 kts | 135° |
| 2026-05-07 17:47 | 45.39821 | 22.45304 | 37039 ft | 457 kts | 134° |
| 2026-05-07 17:48 | 45.35731 | 22.52174 | 37051 ft | 456 kts | 135° |
| 2026-05-07 17:48 | 45.31596 | 22.59040 | 37054 ft | 457 kts | 135° |
| 2026-05-07 17:49 | 45.27434 | 22.65899 | 37049 ft | 457 kts | 135° |
| 2026-05-07 17:49 | 45.23294 | 22.72698 | 37060 ft | 457 kts | 135° |
| 2026-05-07 17:50 | 45.19123 | 22.79531 | 37058 ft | 457 kts | 135° |
| 2026-05-07 17:50 | 45.14944 | 22.86364 | 37057 ft | 457 kts | 135° |
| 2026-05-07 17:51 | 45.10740 | 22.93222 | 37068 ft | 457 kts | 135° |
| 2026-05-07 17:51 | 45.06558 | 23.00028 | 37057 ft | 457 kts | 135° |
| 2026-05-07 17:52 | 45.02376 | 23.06814 | 37050 ft | 457 kts | 135° |
| 2026-05-07 17:52 | 44.98189 | 23.13596 | 37030 ft | 457 kts | 135° |
| 2026-05-07 17:53 | 44.93985 | 23.20387 | 37049 ft | 458 kts | 135° |
| 2026-05-07 17:53 | 44.89728 | 23.27247 | 37045 ft | 458 kts | 135° |
| 2026-05-07 17:54 | 44.85544 | 23.33972 | 37050 ft | 459 kts | 135° |
| 2026-05-07 17:54 | 44.81321 | 23.40745 | 37036 ft | 459 kts | 135° |
| 2026-05-07 17:55 | 44.77089 | 23.47516 | 37040 ft | 459 kts | 135° |
| 2026-05-07 17:55 | 44.72857 | 23.54273 | 37043 ft | 460 kts | 135° |
| 2026-05-07 17:56 | 44.68643 | 23.60986 | 37040 ft | 460 kts | 135° |
| 2026-05-07 17:56 | 44.64613 | 23.68020 | 37044 ft | 463 kts | 129° |
| 2026-05-07 17:57 | 44.61532 | 23.74261 | 37039 ft | 464 kts | 127° |
| 2026-05-07 17:57 | 44.60941 | 23.75479 | 37041 ft | 464 kts | 127° |